sensor_id;sensor_type;location;lat;lon;timestamp;pressure;altitude;pressure_sealevel;temperature;humidity
34586;BME280;20816;50.950;11.108;2023-04-05T00:01:59;99229.97;;;-2.36;96.43
34586;BME280;20816;50.950;11.108;2023-04-05T00:04:26;99224.97;;;-2.31;96.60
34586;BME280;20816;50.950;11.108;2023-04-05T00:06:54;99221.19;;;-2.41;96.91
34586;BME280;20816;50.950;11.108;2023-04-05T00:09:22;99216.91;;;-2.40;97.43
34586;BME280;20816;50.950;11.108;2023-04-05T00:11:49;99220.06;;;-2.47;97.04
34586;BME280;20816;50.950;11.108;2023-04-05T00:14:16;99208.88;;;-2.48;97.55
34586;BME280;20816;50.950;11.108;2023-04-05T00:16:43;99208.78;;;-2.51;97.84
34586;BME280;20816;50.950;11.108;2023-04-05T00:19:10;99217.22;;;-2.54;98.05
34586;BME280;20816;50.950;11.108;2023-04-05T00:21:38;99205.38;;;-2.50;97.88
34586;BME280;20816;50.950;11.108;2023-04-05T00:24:05;99206.38;;;-2.46;97.63
34586;BME280;20816;50.950;11.108;2023-04-05T00:26:33;99204.63;;;-2.47;97.71
34586;BME280;20816;50.950;11.108;2023-04-05T00:29:01;99201.28;;;-2.45;97.52
34586;BME280;20816;50.950;11.108;2023-04-05T00:31:28;99205.75;;;-2.41;97.54
34586;BME280;20816;50.950;11.108;2023-04-05T00:33:55;99201.34;;;-2.43;96.84
34586;BME280;20816;50.950;11.108;2023-04-05T00:36:22;99208.94;;;-2.46;97.18
34586;BME280;20816;50.950;11.108;2023-04-05T00:38:49;99204.75;;;-2.44;96.65
34586;BME280;20816;50.950;11.108;2023-04-05T00:41:16;99197.81;;;-2.45;96.54
34586;BME280;20816;50.950;11.108;2023-04-05T00:43:42;99199.47;;;-2.47;96.33
34586;BME280;20816;50.950;11.108;2023-04-05T00:46:09;99214.09;;;-2.46;96.58
34586;BME280;20816;50.950;11.108;2023-04-05T00:48:37;99203.78;;;-2.46;96.28
34586;BME280;20816;50.950;11.108;2023-04-05T00:51:04;99209.50;;;-2.54;95.93
34586;BME280;20816;50.950;11.108;2023-04-05T00:53:35;99206.63;;;-2.61;95.48
34586;BME280;20816;50.950;11.108;2023-04-05T00:56:03;99206.25;;;-2.70;95.47
34586;BME280;20816;50.950;11.108;2023-04-05T00:58:30;99205.28;;;-2.74;95.79
34586;BME280;20816;50.950;11.108;2023-04-05T01:01:03;99199.94;;;-2.78;96.71
34586;BME280;20816;50.950;11.108;2023-04-05T01:03:34;99200.59;;;-2.84;97.26
34586;BME280;20816;50.950;11.108;2023-04-05T01:11:37;99193.13;;;-2.99;96.56
34586;BME280;20816;50.950;11.108;2023-04-05T01:14:03;99192.09;;;-3.02;97.57
34586;BME280;20816;50.950;11.108;2023-04-05T01:16:30;99190.59;;;-2.97;97.52
34586;BME280;20816;50.950;11.108;2023-04-05T01:18:57;99181.25;;;-2.95;97.94
34586;BME280;20816;50.950;11.108;2023-04-05T01:21:47;99184.97;;;-2.89;97.50
34586;BME280;20816;50.950;11.108;2023-04-05T01:24:37;99175.69;;;-2.85;97.60
34586;BME280;20816;50.950;11.108;2023-04-05T01:27:19;99192.06;;;-2.83;97.16
34586;BME280;20816;50.950;11.108;2023-04-05T01:30:06;99189.53;;;-2.82;96.74
34586;BME280;20816;50.950;11.108;2023-04-05T01:33:14;99192.38;;;-2.75;96.83
34586;BME280;20816;50.950;11.108;2023-04-05T01:35:50;99193.91;;;-2.79;96.15
34586;BME280;20816;50.950;11.108;2023-04-05T01:38:21;99188.72;;;-2.80;95.93
34586;BME280;20816;50.950;11.108;2023-04-05T01:40:52;99182.81;;;-2.78;95.64
34586;BME280;20816;50.950;11.108;2023-04-05T01:43:19;99181.81;;;-2.82;96.03
34586;BME280;20816;50.950;11.108;2023-04-05T01:45:46;99187.72;;;-2.84;96.11
34586;BME280;20816;50.950;11.108;2023-04-05T01:48:13;99177.81;;;-2.96;95.85
34586;BME280;20816;50.950;11.108;2023-04-05T01:50:41;99183.81;;;-2.95;95.75
34586;BME280;20816;50.950;11.108;2023-04-05T01:53:08;99176.16;;;-2.94;96.81
34586;BME280;20816;50.950;11.108;2023-04-05T01:55:35;99177.28;;;-2.87;96.85
34586;BME280;20816;50.950;11.108;2023-04-05T01:58:01;99169.72;;;-2.84;96.58
34586;BME280;20816;50.950;11.108;2023-04-05T02:00:28;99163.25;;;-2.74;96.53
34586;BME280;20816;50.950;11.108;2023-04-05T02:02:55;99171.13;;;-2.70;96.15
34586;BME280;20816;50.950;11.108;2023-04-05T02:05:21;99167.25;;;-2.60;95.57
34586;BME280;20816;50.950;11.108;2023-04-05T02:07:48;99154.66;;;-2.75;94.87
34586;BME280;20816;50.950;11.108;2023-04-05T02:10:14;99152.41;;;-2.88;96.00
34586;BME280;20816;50.950;11.108;2023-04-05T02:12:41;99161.50;;;-2.96;96.73
34586;BME280;20816;50.950;11.108;2023-04-05T02:15:08;99167.53;;;-2.96;97.19
34586;BME280;20816;50.950;11.108;2023-04-05T02:17:35;99154.16;;;-2.87;97.52
34586;BME280;20816;50.950;11.108;2023-04-05T02:20:08;99157.91;;;-2.79;97.04
34586;BME280;20816;50.950;11.108;2023-04-05T02:22:37;99157.59;;;-2.66;96.32
34586;BME280;20816;50.950;11.108;2023-04-05T02:25:06;99159.59;;;-2.59;95.40
34586;BME280;20816;50.950;11.108;2023-04-05T02:27:36;99143.28;;;-2.80;95.17
34586;BME280;20816;50.950;11.108;2023-04-05T02:30:03;99147.59;;;-3.01;96.65
34586;BME280;20816;50.950;11.108;2023-04-05T02:32:30;99147.72;;;-2.98;97.99
34586;BME280;20816;50.950;11.108;2023-04-05T02:34:57;99147.97;;;-2.92;97.67
34586;BME280;20816;50.950;11.108;2023-04-05T02:37:24;99146.31;;;-2.90;97.26
34586;BME280;20816;50.950;11.108;2023-04-05T02:39:54;99142.13;;;-2.88;96.94
34586;BME280;20816;50.950;11.108;2023-04-05T02:42:20;99137.69;;;-2.92;96.53
34586;BME280;20816;50.950;11.108;2023-04-05T02:44:47;99142.81;;;-2.92;97.04
34586;BME280;20816;50.950;11.108;2023-04-05T02:47:14;99138.34;;;-2.96;97.49
34586;BME280;20816;50.950;11.108;2023-04-05T02:49:47;99144.44;;;-2.94;97.78
34586;BME280;20816;50.950;11.108;2023-04-05T02:52:14;99149.81;;;-2.88;97.44
34586;BME280;20816;50.950;11.108;2023-04-05T02:54:42;99150.94;;;-2.82;96.68
34586;BME280;20816;50.950;11.108;2023-04-05T02:57:10;99150.06;;;-2.82;96.37
34586;BME280;20816;50.950;11.108;2023-04-05T02:59:37;99162.38;;;-2.75;95.99
34586;BME280;20816;50.950;11.108;2023-04-05T03:02:05;99161.44;;;-2.77;95.94
34586;BME280;20816;50.950;11.108;2023-04-05T03:04:32;99156.59;;;-2.90;95.37
34586;BME280;20816;50.950;11.108;2023-04-05T03:07:03;99168.03;;;-3.04;96.27
34586;BME280;20816;50.950;11.108;2023-04-05T03:09:30;99161.19;;;-3.04;96.59
34586;BME280;20816;50.950;11.108;2023-04-05T03:12:00;99175.63;;;-3.07;96.75
34586;BME280;20816;50.950;11.108;2023-04-05T03:14:27;99161.84;;;-3.09;97.38
34586;BME280;20816;50.950;11.108;2023-04-05T03:16:54;99167.44;;;-3.18;97.18
34586;BME280;20816;50.950;11.108;2023-04-05T03:19:21;99163.69;;;-3.05;96.93
34586;BME280;20816;50.950;11.108;2023-04-05T03:21:48;99168.03;;;-3.04;96.53
34586;BME280;20816;50.950;11.108;2023-04-05T03:24:15;99166.38;;;-3.02;96.60
34586;BME280;20816;50.950;11.108;2023-04-05T03:26:46;99162.88;;;-3.04;96.93
34586;BME280;20816;50.950;11.108;2023-04-05T03:29:14;99166.88;;;-3.11;96.73
34586;BME280;20816;50.950;11.108;2023-04-05T03:31:41;99172.31;;;-3.26;97.64
34586;BME280;20816;50.950;11.108;2023-04-05T03:34:08;99173.66;;;-3.34;98.17
34586;BME280;20816;50.950;11.108;2023-04-05T03:36:35;99167.56;;;-3.36;98.63
34586;BME280;20816;50.950;11.108;2023-04-05T03:39:08;99173.47;;;-3.39;98.81
34586;BME280;20816;50.950;11.108;2023-04-05T03:41:36;99168.88;;;-3.46;98.03
34586;BME280;20816;50.950;11.108;2023-04-05T03:44:03;99171.38;;;-3.47;98.96
34586;BME280;20816;50.950;11.108;2023-04-05T03:46:30;99174.78;;;-3.48;98.18
34586;BME280;20816;50.950;11.108;2023-04-05T03:48:58;99165.84;;;-3.56;97.81
34586;BME280;20816;50.950;11.108;2023-04-05T03:51:26;99163.72;;;-3.67;97.88
34586;BME280;20816;50.950;11.108;2023-04-05T03:53:52;99167.50;;;-3.58;98.18
34586;BME280;20816;50.950;11.108;2023-04-05T03:56:20;99166.59;;;-3.59;98.62
34586;BME280;20816;50.950;11.108;2023-04-05T03:58:47;99163.84;;;-3.63;99.35
34586;BME280;20816;50.950;11.108;2023-04-05T04:01:14;99155.91;;;-3.68;99.82
34586;BME280;20816;50.950;11.108;2023-04-05T04:03:41;99161.53;;;-3.57;99.65
34586;BME280;20816;50.950;11.108;2023-04-05T04:06:07;99165.09;;;-3.54;99.15
34586;BME280;20816;50.950;11.108;2023-04-05T04:08:34;99154.81;;;-3.54;98.91
34586;BME280;20816;50.950;11.108;2023-04-05T04:11:01;99161.78;;;-3.51;99.38
34586;BME280;20816;50.950;11.108;2023-04-05T04:13:28;99154.22;;;-3.48;99.08
34586;BME280;20816;50.950;11.108;2023-04-05T04:15:54;99150.28;;;-3.40;98.92
34586;BME280;20816;50.950;11.108;2023-04-05T04:18:21;99157.34;;;-3.34;98.13
34586;BME280;20816;50.950;11.108;2023-04-05T04:20:48;99157.81;;;-3.24;98.04
34586;BME280;20816;50.950;11.108;2023-04-05T04:23:15;99149.28;;;-3.23;97.76
34586;BME280;20816;50.950;11.108;2023-04-05T04:25:42;99158.06;;;-3.18;97.35
34586;BME280;20816;50.950;11.108;2023-04-05T04:28:11;99159.81;;;-3.17;96.98
34586;BME280;20816;50.950;11.108;2023-04-05T04:30:38;99164.16;;;-3.16;96.84
34586;BME280;20816;50.950;11.108;2023-04-05T04:33:08;99152.47;;;-3.07;97.01
34586;BME280;20816;50.950;11.108;2023-04-05T04:35:35;99161.13;;;-3.05;97.07
34586;BME280;20816;50.950;11.108;2023-04-05T04:38:08;99156.97;;;-3.02;97.40
34586;BME280;20816;50.950;11.108;2023-04-05T04:40:36;99156.00;;;-3.05;97.38
34586;BME280;20816;50.950;11.108;2023-04-05T04:43:09;99161.00;;;-3.08;97.72
34586;BME280;20816;50.950;11.108;2023-04-05T04:45:40;99159.44;;;-3.05;97.85
34586;BME280;20816;50.950;11.108;2023-04-05T04:48:07;99164.63;;;-3.03;98.16
34586;BME280;20816;50.950;11.108;2023-04-05T04:50:34;99159.84;;;-2.94;98.21
34586;BME280;20816;50.950;11.108;2023-04-05T04:53:01;99153.84;;;-2.74;97.88
34586;BME280;20816;50.950;11.108;2023-04-05T04:55:28;99154.75;;;-2.72;97.34
34586;BME280;20816;50.950;11.108;2023-04-05T04:57:55;99157.59;;;-2.66;97.31
34586;BME280;20816;50.950;11.108;2023-04-05T05:00:23;99147.88;;;-2.73;97.76
34586;BME280;20816;50.950;11.108;2023-04-05T05:02:51;99150.78;;;-2.64;98.13
34586;BME280;20816;50.950;11.108;2023-04-05T05:05:18;99149.28;;;-2.59;98.44
34586;BME280;20816;50.950;11.108;2023-04-05T05:07:49;99150.78;;;-2.64;98.27
34586;BME280;20816;50.950;11.108;2023-04-05T05:10:16;99133.13;;;-2.55;98.19
34586;BME280;20816;50.950;11.108;2023-04-05T05:12:44;99140.13;;;-2.52;98.32
34586;BME280;20816;50.950;11.108;2023-04-05T05:15:11;99138.41;;;-2.51;97.95
34586;BME280;20816;50.950;11.108;2023-04-05T05:17:38;99131.38;;;-2.56;97.90
34586;BME280;20816;50.950;11.108;2023-04-05T05:20:06;99131.56;;;-2.51;98.03
34586;BME280;20816;50.950;11.108;2023-04-05T05:22:37;99135.84;;;-2.51;97.83
34586;BME280;20816;50.950;11.108;2023-04-05T05:25:05;99135.84;;;-2.51;98.05
34586;BME280;20816;50.950;11.108;2023-04-05T05:27:32;99138.63;;;-2.45;98.19
34586;BME280;20816;50.950;11.108;2023-04-05T05:30:02;99138.47;;;-2.50;98.11
34586;BME280;20816;50.950;11.108;2023-04-05T05:32:29;99134.09;;;-2.52;98.30
34586;BME280;20816;50.950;11.108;2023-04-05T05:34:56;99130.75;;;-2.50;98.31
34586;BME280;20816;50.950;11.108;2023-04-05T05:37:30;99128.00;;;-2.55;98.21
34586;BME280;20816;50.950;11.108;2023-04-05T05:39:58;99125.56;;;-2.51;98.11
34586;BME280;20816;50.950;11.108;2023-04-05T05:42:25;99135.31;;;-2.43;99.08
34586;BME280;20816;50.950;11.108;2023-04-05T05:44:52;99136.97;;;-2.21;99.05
34586;BME280;20816;50.950;11.108;2023-04-05T05:47:19;99129.22;;;-1.99;98.27
34586;BME280;20816;50.950;11.108;2023-04-05T05:49:46;99136.19;;;-1.72;97.87
34586;BME280;20816;50.950;11.108;2023-04-05T05:52:15;99130.38;;;-1.41;96.55
34586;BME280;20816;50.950;11.108;2023-04-05T05:54:42;99124.38;;;-1.15;95.46
34586;BME280;20816;50.950;11.108;2023-04-05T05:57:09;99134.63;;;-0.91;94.57
34586;BME280;20816;50.950;11.108;2023-04-05T05:59:35;99122.34;;;-0.72;93.97
34586;BME280;20816;50.950;11.108;2023-04-05T06:02:02;99121.69;;;-0.65;93.55
34586;BME280;20816;50.950;11.108;2023-04-05T06:04:29;99116.47;;;-0.38;93.70
34586;BME280;20816;50.950;11.108;2023-04-05T06:06:56;99123.25;;;-0.13;93.26
34586;BME280;20816;50.950;11.108;2023-04-05T06:09:23;99127.25;;;0.07;92.68
34586;BME280;20816;50.950;11.108;2023-04-05T06:11:51;99114.19;;;0.33;92.23
34586;BME280;20816;50.950;11.108;2023-04-05T06:14:23;99121.00;;;0.62;91.14
34586;BME280;20816;50.950;11.108;2023-04-05T06:16:49;99126.50;;;0.74;89.36
34586;BME280;20816;50.950;11.108;2023-04-05T06:19:16;99125.31;;;0.96;88.10
34586;BME280;20816;50.950;11.108;2023-04-05T06:21:43;99125.81;;;1.16;87.77
34586;BME280;20816;50.950;11.108;2023-04-05T06:24:10;99116.91;;;1.41;85.85
34586;BME280;20816;50.950;11.108;2023-04-05T06:26:36;99116.75;;;1.73;84.34
34586;BME280;20816;50.950;11.108;2023-04-05T06:29:03;99114.81;;;2.05;82.70
34586;BME280;20816;50.950;11.108;2023-04-05T06:31:31;99109.44;;;2.39;82.17
34586;BME280;20816;50.950;11.108;2023-04-05T06:33:59;99112.59;;;2.70;80.35
34586;BME280;20816;50.950;11.108;2023-04-05T06:36:26;99117.50;;;3.03;79.62
34586;BME280;20816;50.950;11.108;2023-04-05T06:38:53;99116.19;;;3.29;77.85
34586;BME280;20816;50.950;11.108;2023-04-05T06:41:20;99116.78;;;3.71;76.96
34586;BME280;20816;50.950;11.108;2023-04-05T06:43:46;99118.94;;;4.01;73.24
34586;BME280;20816;50.950;11.108;2023-04-05T06:46:13;99121.13;;;4.40;72.13
34586;BME280;20816;50.950;11.108;2023-04-05T06:48:40;99110.31;;;4.87;71.62
34586;BME280;20816;50.950;11.108;2023-04-05T06:51:07;99112.03;;;4.88;70.80
34586;BME280;20816;50.950;11.108;2023-04-05T06:53:34;99111.94;;;4.72;72.51
34586;BME280;20816;50.950;11.108;2023-04-05T06:56:00;99124.53;;;4.34;72.67
34586;BME280;20816;50.950;11.108;2023-04-05T06:58:27;99116.88;;;4.48;73.33
34586;BME280;20816;50.950;11.108;2023-04-05T07:00:54;99112.28;;;4.26;72.98
34586;BME280;20816;50.950;11.108;2023-04-05T07:03:21;99123.50;;;4.20;73.08
34586;BME280;20816;50.950;11.108;2023-04-05T07:05:56;99133.78;;;4.12;74.39
34586;BME280;20816;50.950;11.108;2023-04-05T07:08:25;99124.00;;;3.91;74.62
34586;BME280;20816;50.950;11.108;2023-04-05T07:10:53;99128.16;;;3.79;75.67
34586;BME280;20816;50.950;11.108;2023-04-05T07:13:21;99124.91;;;3.95;75.75
34586;BME280;20816;50.950;11.108;2023-04-05T07:15:48;99122.78;;;4.33;75.07
34586;BME280;20816;50.950;11.108;2023-04-05T07:18:15;99121.91;;;4.33;74.30
34586;BME280;20816;50.950;11.108;2023-04-05T07:20:45;99119.50;;;4.48;73.79
34586;BME280;20816;50.950;11.108;2023-04-05T07:23:12;99120.53;;;4.65;74.11
34586;BME280;20816;50.950;11.108;2023-04-05T07:25:39;99111.97;;;4.78;71.86
34586;BME280;20816;50.950;11.108;2023-04-05T07:28:06;99112.41;;;4.38;72.63
34586;BME280;20816;50.950;11.108;2023-04-05T07:30:33;99109.28;;;4.71;72.23
34586;BME280;20816;50.950;11.108;2023-04-05T07:33:01;99116.50;;;4.99;70.92
34586;BME280;20816;50.950;11.108;2023-04-05T07:35:28;99112.16;;;4.97;70.22
34586;BME280;20816;50.950;11.108;2023-04-05T07:37:55;99113.09;;;5.08;69.38
34586;BME280;20816;50.950;11.108;2023-04-05T07:40:22;99115.84;;;5.22;68.30
34586;BME280;20816;50.950;11.108;2023-04-05T07:42:48;99116.59;;;5.12;67.38
34586;BME280;20816;50.950;11.108;2023-04-05T07:45:15;99117.56;;;5.21;67.04
34586;BME280;20816;50.950;11.108;2023-04-05T07:47:42;99123.38;;;4.93;69.79
34586;BME280;20816;50.950;11.108;2023-04-05T07:50:09;99119.25;;;5.19;70.02
34586;BME280;20816;50.950;11.108;2023-04-05T07:52:37;99124.47;;;5.13;68.74
34586;BME280;20816;50.950;11.108;2023-04-05T07:55:04;99129.59;;;5.05;69.01
34586;BME280;20816;50.950;11.108;2023-04-05T07:57:31;99133.22;;;5.27;68.91
34586;BME280;20816;50.950;11.108;2023-04-05T07:59:58;99121.19;;;5.42;69.42
34586;BME280;20816;50.950;11.108;2023-04-05T08:02:24;99119.66;;;5.73;68.30
34586;BME280;20816;50.950;11.108;2023-04-05T08:04:51;99119.03;;;6.15;66.62
34586;BME280;20816;50.950;11.108;2023-04-05T08:07:18;99119.09;;;6.33;64.68
34586;BME280;20816;50.950;11.108;2023-04-05T08:09:44;99119.97;;;6.32;62.79
34586;BME280;20816;50.950;11.108;2023-04-05T08:12:11;99122.59;;;6.41;63.08
34586;BME280;20816;50.950;11.108;2023-04-05T08:14:38;99120.03;;;6.57;62.20
34586;BME280;20816;50.950;11.108;2023-04-05T08:17:04;99120.88;;;6.48;61.96
34586;BME280;20816;50.950;11.108;2023-04-05T08:19:31;99118.31;;;6.65;62.68
34586;BME280;20816;50.950;11.108;2023-04-05T08:21:58;99117.47;;;6.83;61.95
34586;BME280;20816;50.950;11.108;2023-04-05T08:24:24;99111.41;;;7.25;60.99
34586;BME280;20816;50.950;11.108;2023-04-05T08:26:51;99113.16;;;7.14;59.33
34586;BME280;20816;50.950;11.108;2023-04-05T08:29:18;99109.66;;;7.19;60.04
34586;BME280;20816;50.950;11.108;2023-04-05T08:31:44;99113.16;;;7.29;59.69
34586;BME280;20816;50.950;11.108;2023-04-05T08:34:11;99113.09;;;6.74;60.47
34586;BME280;20816;50.950;11.108;2023-04-05T08:36:38;99103.53;;;7.55;60.62
34586;BME280;20816;50.950;11.108;2023-04-05T08:39:05;99107.88;;;7.59;58.48
34586;BME280;20816;50.950;11.108;2023-04-05T08:41:40;99096.41;;;8.09;56.98
34586;BME280;20816;50.950;11.108;2023-04-05T08:44:09;99105.91;;;8.32;56.52
34586;BME280;20816;50.950;11.108;2023-04-05T08:46:35;99091.59;;;8.92;54.90
34586;BME280;20816;50.950;11.108;2023-04-05T08:49:06;99098.03;;;8.38;53.55
34586;BME280;20816;50.950;11.108;2023-04-05T08:51:37;99100.84;;;7.92;55.51
34586;BME280;20816;50.950;11.108;2023-04-05T08:54:07;99100.94;;;7.43;55.90
34586;BME280;20816;50.950;11.108;2023-04-05T08:56:34;99096.59;;;6.77;57.50
34586;BME280;20816;50.950;11.108;2023-04-05T08:59:03;99101.75;;;6.57;58.94
34586;BME280;20816;50.950;11.108;2023-04-05T09:01:32;99094.75;;;6.42;60.69
34586;BME280;20816;50.950;11.108;2023-04-05T09:04:06;99091.34;;;6.60;60.80
34586;BME280;20816;50.950;11.108;2023-04-05T09:06:35;99093.97;;;6.77;59.33
34586;BME280;20816;50.950;11.108;2023-04-05T09:09:05;99089.59;;;6.72;59.93
34586;BME280;20816;50.950;11.108;2023-04-05T09:11:34;99099.13;;;6.57;59.58
34586;BME280;20816;50.950;11.108;2023-04-05T09:14:02;99098.31;;;6.81;59.71
34586;BME280;20816;50.950;11.108;2023-04-05T09:16:32;99098.31;;;6.78;59.38
34586;BME280;20816;50.950;11.108;2023-04-05T09:19:02;99100.94;;;6.79;58.54
34586;BME280;20816;50.950;11.108;2023-04-05T09:21:29;99102.66;;;6.68;59.36
34586;BME280;20816;50.950;11.108;2023-04-05T09:23:56;99102.69;;;6.98;58.74
34586;BME280;20816;50.950;11.108;2023-04-05T09:26:24;99092.25;;;7.03;58.93
34586;BME280;20816;50.950;11.108;2023-04-05T09:28:51;99096.59;;;7.01;58.96
34586;BME280;20816;50.950;11.108;2023-04-05T09:31:32;99093.97;;;7.04;57.87
34586;BME280;20816;50.950;11.108;2023-04-05T09:34:01;99093.97;;;7.06;57.21
34586;BME280;20816;50.950;11.108;2023-04-05T09:36:30;99093.09;;;6.88;56.78
34586;BME280;20816;50.950;11.108;2023-04-05T09:39:05;99097.47;;;7.11;57.30
34586;BME280;20816;50.950;11.108;2023-04-05T09:41:33;99091.38;;;7.33;56.49
34586;BME280;20816;50.950;11.108;2023-04-05T09:44:01;99086.13;;;7.22;57.24
34586;BME280;20816;50.950;11.108;2023-04-05T09:46:31;99085.25;;;7.20;57.15
34586;BME280;20816;50.950;11.108;2023-04-05T09:49:00;99085.25;;;7.16;56.39
34586;BME280;20816;50.950;11.108;2023-04-05T09:51:37;99084.38;;;6.97;55.29
34586;BME280;20816;50.950;11.108;2023-04-05T09:54:05;99091.38;;;7.02;54.54
34586;BME280;20816;50.950;11.108;2023-04-05T09:56:34;99084.41;;;7.09;52.01
34586;BME280;20816;50.950;11.108;2023-04-05T09:59:05;99085.25;;;6.91;50.65
34586;BME280;20816;50.950;11.108;2023-04-05T10:01:32;99080.88;;;6.83;50.28
34586;BME280;20816;50.950;11.108;2023-04-05T10:03:59;99087.00;;;7.14;50.34
34586;BME280;20816;50.950;11.108;2023-04-05T10:06:41;99081.78;;;6.92;49.89
34586;BME280;20816;50.950;11.108;2023-04-05T10:09:09;99078.16;;;7.91;49.81
34586;BME280;20816;50.950;11.108;2023-04-05T10:11:37;99072.50;;;8.75;49.18
34586;BME280;20816;50.950;11.108;2023-04-05T10:14:06;99072.66;;;8.55;48.26
34586;BME280;20816;50.950;11.108;2023-04-05T10:19:28;99066.25;;;9.83;47.04
34586;BME280;20816;50.950;11.108;2023-04-05T10:21:59;99069.81;;;9.79;46.09
34586;BME280;20816;50.950;11.108;2023-04-05T10:24:39;99054.66;;;10.69;45.76
34586;BME280;20816;50.950;11.108;2023-04-05T10:27:40;99058.28;;;11.67;44.87
34586;BME280;20816;50.950;11.108;2023-04-05T10:30:14;99048.66;;;11.15;44.76
34586;BME280;20816;50.950;11.108;2023-04-05T10:40:36;99056.69;;;8.89;47.31
34586;BME280;20816;50.950;11.108;2023-04-05T10:43:06;99045.38;;;8.79;47.46
34586;BME280;20816;50.950;11.108;2023-04-05T10:45:40;99044.38;;;8.98;47.94
34586;BME280;20816;50.950;11.108;2023-04-05T10:48:18;99046.38;;;8.61;48.27
34586;BME280;20816;50.950;11.108;2023-04-05T10:50:47;99044.81;;;8.27;49.34
34586;BME280;20816;50.950;11.108;2023-04-05T10:53:14;99048.38;;;8.18;48.22
34586;BME280;20816;50.950;11.108;2023-04-05T10:55:45;99043.91;;;8.41;48.09
34586;BME280;20816;50.950;11.108;2023-04-05T10:58:13;99036.75;;;9.63;47.19
34586;BME280;20816;50.950;11.108;2023-04-05T11:00:41;99026.81;;;10.56;44.71
34586;BME280;20816;50.950;11.108;2023-04-05T11:03:08;99029.47;;;11.10;44.65
34586;BME280;20816;50.950;11.108;2023-04-05T11:05:36;99019.25;;;11.87;44.18
34586;BME280;20816;50.950;11.108;2023-04-05T11:08:05;99017.75;;;12.17;43.33
34586;BME280;20816;50.950;11.108;2023-04-05T11:10:35;99019.84;;;11.57;44.70
34586;BME280;20816;50.950;11.108;2023-04-05T11:13:04;99019.88;;;10.52;45.19
34586;BME280;20816;50.950;11.108;2023-04-05T11:15:32;99020.72;;;11.57;44.98
34586;BME280;20816;50.950;11.108;2023-04-05T11:18:11;99018.06;;;11.59;44.45
34586;BME280;20816;50.950;11.108;2023-04-05T11:20:53;99013.72;;;12.80;42.84
34586;BME280;20816;50.950;11.108;2023-04-05T11:23:30;99010.22;;;12.41;43.24
34586;BME280;20816;50.950;11.108;2023-04-05T11:26:05;99000.34;;;12.87;43.25
34586;BME280;20816;50.950;11.108;2023-04-05T11:28:38;99008.13;;;11.73;43.30
34586;BME280;20816;50.950;11.108;2023-04-05T11:31:16;99007.28;;;11.71;43.83
34586;BME280;20816;50.950;11.108;2023-04-05T11:33:58;99004.84;;;12.06;44.92
34586;BME280;20816;50.950;11.108;2023-04-05T11:42:02;99006.56;;;11.15;44.65
34586;BME280;20816;50.950;11.108;2023-04-05T11:44:39;99002.75;;;11.31;44.58
34586;BME280;20816;50.950;11.108;2023-04-05T11:47:06;98988.59;;;12.25;44.17
34586;BME280;20816;50.950;11.108;2023-04-05T11:49:34;98982.34;;;11.44;43.86
34586;BME280;20816;50.950;11.108;2023-04-05T11:52:15;98987.81;;;11.78;43.25
34586;BME280;20816;50.950;11.108;2023-04-05T11:54:43;98981.56;;;11.85;43.65
34586;BME280;20816;50.950;11.108;2023-04-05T11:57:20;98988.03;;;10.70;44.14
34586;BME280;20816;50.950;11.108;2023-04-05T11:59:49;98991.97;;;9.75;46.25
34586;BME280;20816;50.950;11.108;2023-04-05T12:02:17;98993.41;;;9.25;47.07
34586;BME280;20816;50.950;11.108;2023-04-05T12:04:52;98987.44;;;9.11;47.81
34586;BME280;20816;50.950;11.108;2023-04-05T12:07:19;98981.38;;;9.03;48.22
34586;BME280;20816;50.950;11.108;2023-04-05T12:10:06;98983.25;;;8.92;48.17
34586;BME280;20816;50.950;11.108;2023-04-05T12:12:41;98987.16;;;8.40;49.72
34586;BME280;20816;50.950;11.108;2023-04-05T12:15:10;98974.72;;;8.68;49.76
34586;BME280;20816;50.950;11.108;2023-04-05T12:17:45;98971.56;;;8.18;49.92
34586;BME280;20816;50.950;11.108;2023-04-05T12:20:14;98981.94;;;8.37;50.26
34586;BME280;20816;50.950;11.108;2023-04-05T12:22:46;98975.78;;;8.43;50.16
34586;BME280;20816;50.950;11.108;2023-04-05T12:25:15;98971.34;;;8.51;50.50
34586;BME280;20816;50.950;11.108;2023-04-05T12:27:42;98972.28;;;8.44;50.26
34586;BME280;20816;50.950;11.108;2023-04-05T12:30:22;98959.88;;;8.67;49.68
34586;BME280;20816;50.950;11.108;2023-04-05T12:32:53;98958.91;;;8.81;49.79
34586;BME280;20816;50.950;11.108;2023-04-05T12:35:27;98957.69;;;9.14;49.51
34586;BME280;20816;50.950;11.108;2023-04-05T12:38:00;98961.28;;;9.07;49.41
34586;BME280;20816;50.950;11.108;2023-04-05T12:40:27;98959.59;;;8.99;48.89
34586;BME280;20816;50.950;11.108;2023-04-05T12:43:03;98963.81;;;9.14;47.98
34586;BME280;20816;50.950;11.108;2023-04-05T12:45:30;98956.38;;;10.18;47.00
34586;BME280;20816;50.950;11.108;2023-04-05T12:48:08;98946.84;;;11.20;44.98
34586;BME280;20816;50.950;11.108;2023-04-05T12:50:41;98939.53;;;11.77;43.85
34586;BME280;20816;50.950;11.108;2023-04-05T12:53:08;98941.94;;;10.51;45.34
34586;BME280;20816;50.950;11.108;2023-04-05T12:55:42;98940.16;;;10.50;45.15
34586;BME280;20816;50.950;11.108;2023-04-05T12:58:11;98942.69;;;10.59;46.44
34586;BME280;20816;50.950;11.108;2023-04-05T13:00:39;98938.50;;;9.86;46.96
34586;BME280;20816;50.950;11.108;2023-04-05T13:03:17;98935.44;;;9.48;47.02
34586;BME280;20816;50.950;11.108;2023-04-05T13:05:47;98926.75;;;10.08;46.61
34586;BME280;20816;50.950;11.108;2023-04-05T13:08:17;98923.81;;;9.68;46.52
34586;BME280;20816;50.950;11.108;2023-04-05T13:10:47;98909.63;;;9.82;47.56
34586;BME280;20816;50.950;11.108;2023-04-05T13:13:16;98919.63;;;9.56;47.28
34586;BME280;20816;50.950;11.108;2023-04-05T13:15:43;98910.41;;;9.23;47.77
34586;BME280;20816;50.950;11.108;2023-04-05T13:18:11;98911.53;;;8.99;47.63
34586;BME280;20816;50.950;11.108;2023-04-05T13:20:44;98904.34;;;9.16;47.39
34586;BME280;20816;50.950;11.108;2023-04-05T13:23:11;98898.78;;;9.45;47.68
34586;BME280;20816;50.950;11.108;2023-04-05T13:25:42;98907.69;;;9.31;47.72
34586;BME280;20816;50.950;11.108;2023-04-05T13:28:10;98894.59;;;8.43;49.13